Time;durP1;ratioP1;P1;durP2;ratioP2;P2;SDS_P1;SDS_P2;PMS_P1;PMS_P2;Temp;Humidity;BMP_temperature;BMP_pressure;BME280_temperature;BME280_humidity;BME280_pressure;Samples;Min_cycle;Max_cycle;Signal;HPM_P1;HPM_P2
2022/10/03 00:02:26;;;;;;;4.77;2.10;;;;;;;-141.97;45.97;47588.28;4864272;29;20192;-85
2022/10/03 00:05:09;;;;;;;2.83;2.10;;;;;;;-141.97;46.16;47534.44;4863788;29;20190;-84
2022/10/03 00:08:02;;;;;;;2.20;1.93;;;;;;;-141.97;44.87;47519.06;4865692;29;20231;-84
2022/10/03 00:10:40;;;;;;;2.87;2.30;;;;;;;-141.97;46.67;47530.59;4868935;29;20286;-84
2022/10/03 00:13:11;;;;;;;2.07;1.73;;;;;;;-141.97;44.64;47542.16;4868927;29;20196;-84
2022/10/03 00:16:13;;;;;;;3.37;2.00;;;;;;;-141.97;43.90;47555.59;4865561;29;20191;-84
2022/10/03 00:18:48;;;;;;;2.97;2.20;;;;;;;-141.97;44.27;47542.16;4867747;29;20196;-85
2022/10/03 00:21:44;;;;;;;2.30;2.00;;;;;;;-141.97;44.47;47538.28;4864858;29;20829;-84
2022/10/03 00:24:19;;;;;;;3.17;1.90;;;;;;;-141.97;44.67;47557.53;4867257;29;20218;-84
2022/10/03 00:27:14;;;;;;;3.00;2.00;;;;;;;-141.97;44.92;47553.69;4867416;29;20210;-85
2022/10/03 00:30:24;;;;;;;2.97;1.93;;;;;;;-141.97;44.91;47559.44;4868092;29;20216;-85
2022/10/03 00:33:10;;;;;;;3.93;2.30;;;;;;;-141.97;45.18;47565.22;4811532;29;20201;-85
2022/10/03 00:35:39;;;;;;;3.33;2.10;;;;;;;-141.97;45.30;47569.06;4834567;29;20291;-83
2022/10/03 00:38:27;;;;;;;3.47;2.40;;;;;;;-141.97;45.33;47534.44;4840638;29;20252;-83
2022/10/03 00:41:13;;;;;;;3.13;2.33;;;;;;;-141.97;45.35;47557.53;4840889;29;20218;-83
2022/10/03 00:44:03;;;;;;;3.00;2.00;;;;;;;-141.97;45.46;47549.84;4839228;29;20710;-85
2022/10/03 00:46:43;;;;;;;4.47;2.10;;;;;;;-141.97;45.94;47576.75;4840811;29;20245;-85
2022/10/03 00:49:08;;;;;;;3.87;2.40;;;;;;;-141.97;45.76;47553.69;4840947;29;20191;-85
2022/10/03 00:52:10;;;;;;;2.00;1.80;;;;;;;-141.97;45.83;47572.91;4840998;29;20586;-85
2022/10/03 00:55:03;;;;;;;2.40;1.90;;;;;;;-141.97;46.21;47565.22;4839434;29;20183;-86
2022/10/03 00:57:49;;;;;;;3.53;2.40;;;;;;;-141.97;46.69;47580.59;4840449;29;20205;-85
2022/10/03 01:00:25;;;;;;;4.93;3.00;;;;;;;-141.97;47.09;47565.22;4837984;29;20665;-85
2022/10/03 01:02:51;;;;;;;4.97;2.80;;;;;;;-141.97;47.79;47592.13;4859282;29;20189;-84
2022/10/03 01:05:28;;;;;;;4.07;2.50;;;;;;;-141.97;47.39;47565.22;4918618;29;20622;-84
2022/10/03 01:08:11;;;;;;;5.30;2.60;;;;;;;-141.97;47.65;47586.34;4930908;29;20169;-85
2022/10/03 01:11:18;;;;;;;3.40;2.20;;;;;;;-141.97;47.93;47572.91;4932183;29;20193;-84
2022/10/03 01:14:01;;;;;;;3.07;2.30;;;;;;;-141.97;47.42;47570.97;4858492;29;21276;-85
2022/10/03 01:16:57;;;;;;;4.80;3.90;;;;;;;-141.97;47.80;47497.94;4857062;29;20191;-85
2022/10/03 01:19:37;;;;;;;6.83;4.30;;;;;;;-141.97;47.75;47580.59;4859355;29;20250;-85
2022/10/03 01:22:11;;;;;;;12.83;6.37;;;;;;;-141.97;47.96;47538.28;4859563;29;20580;-86
2022/10/03 01:24:58;;;;;;;9.93;6.27;;;;;;;-141.97;48.30;47603.66;4859161;29;20548;-86
2022/10/03 01:27:32;;;;;;;9.40;5.13;;;;;;;-141.97;48.24;47521.00;4859349;29;20306;-86
2022/10/03 01:30:21;;;;;;;10.10;4.83;;;;;;;-141.97;48.04;47584.44;4858923;29;20207;-86
2022/10/03 01:33:02;;;;;;;9.57;4.90;;;;;;;-141.97;48.44;47557.53;4859072;29;20168;-86
2022/10/03 01:35:37;;;;;;;9.53;4.47;;;;;;;-141.97;48.04;47570.97;4858762;29;20176;-85
2022/10/03 01:38:31;;;;;;;10.73;4.40;;;;;;;-141.97;48.83;47594.03;4859356;29;20230;-85
2022/10/03 01:41:02;;;;;;;6.60;3.70;;;;;;;-141.97;49.78;47544.06;4859232;29;20175;-86
2022/10/03 01:43:37;;;;;;;5.70;3.40;;;;;;;-141.97;49.23;47546.00;4860540;29;20776;-86
2022/10/03 01:46:20;;;;;;;5.70;3.53;;;;;;;-141.97;49.19;47538.28;4859010;29;20272;-86
2022/10/03 01:48:51;;;;;;;5.07;3.33;;;;;;;-141.97;49.97;47563.28;4859114;29;20256;-86
2022/10/03 01:51:41;;;;;;;6.40;3.40;;;;;;;-141.97;49.92;47588.28;4911166;29;20765;-87
2022/10/03 01:54:33;;;;;;;4.70;3.33;;;;;;;-141.97;49.83;47570.97;4935886;29;20162;-84
2022/10/03 01:57:33;;;;;;;6.47;3.27;;;;;;;-141.97;50.20;47597.88;4935078;29;20176;-85
2022/10/03 02:00:08;;;;;;;6.10;3.27;;;;;;;-141.97;50.93;47565.22;4935499;29;20673;-85
2022/10/03 02:02:46;;;;;;;7.23;3.50;;;;;;;-141.97;51.16;47546.00;4935215;29;20294;-85
2022/10/03 02:05:14;;;;;;;5.50;3.60;;;;;;;-141.97;51.41;47563.28;4935782;29;20169;-86
2022/10/03 02:07:44;;;;;;;5.03;3.50;;;;;;;-141.97;51.29;47557.53;4935391;29;20188;-85
2022/10/03 02:10:23;;;;;;;5.60;3.80;;;;;;;-141.97;51.44;47559.44;4935343;29;20193;-84
2022/10/03 02:13:06;;;;;;;7.20;3.50;;;;;;;-141.97;51.79;47567.13;4935557;29;20164;-84
2022/10/03 02:16:07;;;;;;;6.20;3.83;;;;;;;-141.97;52.26;47569.06;4917778;29;20177;-84
2022/10/03 02:19:00;;;;;;;7.17;3.53;;;;;;;-141.97;52.64;47565.22;4877051;29;20195;-84
2022/10/03 02:21:29;;;;;;;5.83;3.43;;;;;;;-141.97;52.54;47586.34;4876882;29;20618;-84
2022/10/03 02:24:20;;;;;;;4.33;3.00;;;;;;;-141.97;53.32;47595.97;4876752;29;20199;-83
2022/10/03 02:26:51;;;;;;;7.17;3.40;;;;;;;-141.97;53.76;47559.44;4821464;29;20201;-83
2022/10/03 02:29:47;;;;;;;6.53;3.17;;;;;;;-141.97;54.48;47561.38;4812787;29;20259;-83
2022/10/03 02:32:15;;;;;;;6.53;3.00;;;;;;;-141.97;54.27;47595.97;4802890;29;20383;-84
2022/10/03 02:34:41;;;;;;;4.67;3.00;;;;;;;-141.97;53.79;47601.72;4807804;29;20279;-84
2022/10/03 02:37:34;;;;;;;5.07;3.47;;;;;;;-141.97;53.76;47557.53;4822661;29;20655;-85
2022/10/03 02:40:23;;;;;;;5.00;3.40;;;;;;;-141.97;53.35;47599.81;4821490;29;20169;-85
2022/10/03 02:43:10;;;;;;;6.80;3.53;;;;;;;-141.97;53.55;47565.22;4821206;29;20280;-83
2022/10/03 02:46:00;;;;;;;6.60;3.80;;;;;;;-141.97;53.19;47574.81;4821679;29;20173;-83
2022/10/03 02:48:52;;;;;;;7.93;4.27;;;;;;;-141.97;52.80;47574.81;4821137;29;20265;-84
2022/10/03 02:51:29;;;;;;;6.33;4.37;;;;;;;-141.97;53.47;47584.44;4821588;29;20224;-84
2022/10/03 02:54:10;;;;;;;7.50;4.20;;;;;;;-141.97;53.93;47584.44;4821081;29;20181;-84
2022/10/03 02:57:09;;;;;;;10.03;5.60;;;;;;;-141.97;53.30;47503.69;4857714;29;20677;-84
2022/10/03 02:59:58;;;;;;;6.73;4.40;;;;;;;-141.97;54.87;47572.91;4861127;29;20264;-84
2022/10/03 03:02:48;;;;;;;17.93;6.23;;;;;;;-141.97;54.43;47576.75;4859969;29;20182;-84
2022/10/03 03:05:39;;;;;;;10.73;5.60;;;;;;;-141.97;55.25;47576.75;4899964;29;20194;-84
2022/10/03 03:08:42;;;;;;;13.97;5.20;;;;;;;-141.97;55.48;47546.00;4916984;29;20170;-84
2022/10/03 03:11:32;;;;;;;9.53;5.20;;;;;;;-141.97;55.04;47569.06;4916893;29;20185;-84
2022/10/03 03:14:08;;;;;;;10.83;5.43;;;;;;;-141.97;55.05;47569.06;4917515;29;20213;-84
2022/10/03 03:16:39;;;;;;;12.47;5.60;;;;;;;-141.97;55.15;47565.22;4916240;29;20655;-84
2022/10/03 03:19:34;;;;;;;10.43;5.53;;;;;;;-141.97;56.57;47670.91;4916277;29;20169;-85
2022/10/03 03:22:19;;;;;;;11.43;5.83;;;;;;;-141.97;57.65;47580.59;4915539;29;20173;-84
2022/10/03 03:24:47;;;;;;;11.37;5.93;;;;;;;-141.97;57.95;47561.38;4915678;29;20159;-84
2022/10/03 03:27:41;;;;;;;12.47;6.00;;;;;;;-141.97;57.49;47542.16;4915878;29;20241;-84
2022/10/03 03:30:22;;;;;;;9.17;5.70;;;;;;;-141.97;58.30;47588.28;4919630;29;20194;-84
2022/10/03 03:33:00;;;;;;;11.80;5.63;;;;;;;-141.97;59.48;47563.28;4919256;29;20170;-84
2022/10/03 03:36:16;;;;;;;10.77;6.27;;;;;;;-141.97;59.25;47580.59;4919894;29;20166;-84
2022/10/03 03:38:49;;;;;;;10.23;6.00;;;;;;;-141.97;58.43;47599.81;4881307;29;20195;-84
2022/10/03 03:41:35;;;;;;;15.73;8.10;;;;;;;-141.97;59.41;47565.22;4880615;29;20191;-83
2022/10/03 03:44:41;;;;;;;12.97;7.13;;;;;;;-141.97;58.19;47549.84;4880125;29;20516;-84
2022/10/03 03:47:06;;;;;;;11.77;6.93;;;;;;;-141.97;57.90;47567.13;4880566;29;20175;-83
2022/10/03 03:50:06;;;;;;;12.27;7.53;;;;;;;-141.97;57.82;47569.06;4879039;29;20711;-84
2022/10/03 03:53:09;;;;;;;26.90;14.53;;;;;;;-141.97;57.06;47580.59;4879266;29;20496;-85
2022/10/03 03:55:39;;;;;;;21.20;10.00;;;;;;;-141.97;55.49;47582.50;4807760;29;20229;-85
2022/10/03 03:58:23;;;;;;;13.47;7.00;;;;;;;-141.97;53.76;47557.53;4826791;29;20572;-85
2022/10/03 04:01:13;;;;;;;8.80;5.00;;;;;;;-141.97;52.63;47580.59;4825274;29;20197;-85
2022/10/03 04:04:01;;;;;;;7.63;5.00;;;;;;;-141.97;52.19;47584.44;4824649;29;20172;-86
2022/10/03 04:06:46;;;;;;;6.77;4.70;;;;;;;-141.97;51.92;47588.28;4824979;29;20284;-85
2022/10/03 04:09:57;;;;;;;10.10;5.50;;;;;;;-141.97;52.14;47597.88;4825523;29;20170;-85
2022/10/03 04:12:35;;;;;;;11.80;5.63;;;;;;;-141.97;51.74;47597.88;4770628;30;20203;-85
2022/10/03 04:15:25;;;;;;;10.63;5.50;;;;;;;-141.97;52.03;47584.44;4799040;29;20205;-85
2022/10/03 04:21:11;;;;;;;14.60;6.93;;;;;;;-141.97;52.08;47534.44;4806641;29;20897;-84
2022/10/03 04:24:01;;;;;;;7.20;4.20;;;;;;;-141.97;52.14;47563.28;4807618;29;20198;-85
2022/10/03 04:26:45;;;;;;;5.77;3.20;;;;;;;-141.97;52.71;47542.16;4805220;29;20198;-85
2022/10/03 04:29:50;;;;;;;6.93;3.53;;;;;;;-141.97;52.76;47557.53;4805634;29;20300;-85
2022/10/03 04:32:27;;;;;;;8.10;3.40;;;;;;;-141.97;52.71;47559.44;4809313;29;20205;-85
2022/10/03 04:35:07;;;;;;;7.43;3.93;;;;;;;-141.97;52.54;47580.59;4823444;29;20193;-85
2022/10/03 04:37:44;;;;;;;8.00;4.27;;;;;;;-141.97;52.19;47569.06;4823872;29;20193;-86
2022/10/03 04:40:16;;;;;;;8.07;3.83;;;;;;;-141.97;52.52;47574.81;4823320;29;20635;-89
2022/10/03 04:43:00;;;;;;;15.00;6.47;;;;;;;-141.97;52.63;47576.75;4823922;29;20205;-84
2022/10/03 04:45:44;;;;;;;36.30;20.13;;;;;;;-141.97;53.07;47574.81;4773624;29;20226;-86
2022/10/03 04:48:16;;;;;;;84.20;51.90;;;;;;;-141.97;53.30;47546.00;4791123;29;20202;-85
2022/10/03 04:50:45;;;;;;;50.27;29.97;;;;;;;-141.97;53.41;47557.53;4854013;29;20358;-85
2022/10/03 04:53:42;;;;;;;22.90;14.53;;;;;;;-141.97;52.74;47565.22;4858907;29;20192;-85
2022/10/03 04:56:17;;;;;;;24.80;14.00;;;;;;;-141.97;53.39;47580.59;4847312;29;20225;-86
2022/10/03 04:59:07;;;;;;;22.27;15.50;;;;;;;-141.97;53.17;47517.16;4840630;29;20204;-86
2022/10/03 05:01:44;;;;;;;25.00;17.23;;;;;;;-141.97;53.02;47617.09;4841673;29;20220;-85
2022/10/03 05:04:29;;;;;;;31.30;18.43;;;;;;;-141.97;53.30;47555.59;4846164;29;20252;-85
2022/10/03 05:07:25;;;;;;;22.17;14.60;;;;;;;-141.97;52.98;47565.22;4839786;29;20294;-86
2022/10/03 05:09:59;;;;;;;21.30;13.93;;;;;;;-141.97;53.24;47569.06;4909579;29;20209;-85
2022/10/03 05:13:03;;;;;;;17.17;11.10;;;;;;;-141.97;53.34;47563.28;4916581;29;20190;-85
2022/10/03 05:15:33;;;;;;;14.27;8.77;;;;;;;-141.97;53.03;47561.38;4895593;29;20182;-86
2022/10/03 05:18:28;;;;;;;11.10;6.83;;;;;;;-141.97;53.22;47590.19;4885125;29;20205;-84
2022/10/03 05:21:26;;;;;;;9.10;5.07;;;;;;;-141.97;53.08;47582.50;4904408;29;20242;-86
2022/10/03 05:24:03;;;;;;;10.40;6.27;;;;;;;-141.97;53.26;47578.66;4908504;29;20190;-85
2022/10/03 05:26:41;;;;;;;8.83;5.03;;;;;;;-141.97;52.92;47586.34;4908795;29;20202;-85
2022/10/03 05:29:34;;;;;;;10.00;5.17;;;;;;;-141.97;53.65;47592.13;4921357;29;20194;-85
2022/10/03 05:32:13;;;;;;;8.97;6.03;;;;;;;-141.97;53.85;47595.97;4899689;29;20252;-85
2022/10/03 05:34:58;;;;;;;7.13;4.73;;;;;;;-141.97;53.64;47511.38;4916644;29;20190;-85
2022/10/03 05:37:58;;;;;;;8.17;3.90;;;;;;;-141.97;53.99;47576.75;4910661;29;20226;-87
2022/10/03 05:40:26;;;;;;;7.57;3.80;;;;;;;-141.97;53.79;47522.91;4879963;29;20301;-87
2022/10/03 05:43:18;;;;;;;6.87;4.20;;;;;;;-141.97;53.88;47582.50;4895650;29;20306;-86
2022/10/03 05:45:51;;;;;;;7.10;3.83;;;;;;;-141.97;53.58;47546.00;4828301;29;20336;-85
2022/10/03 05:48:44;;;;;;;5.33;3.70;;;;;;;-141.97;53.83;47603.66;4858165;29;20191;-85
2022/10/03 05:51:49;;;;;;;6.87;4.00;;;;;;;-141.97;54.19;47499.84;4858375;29;20224;-86
2022/10/03 05:54:59;;;;;;;6.43;3.60;;;;;;;-141.97;54.64;47730.50;4878232;29;20178;-87
2022/10/03 05:57:33;;;;;;;7.00;3.20;;;;;;;-141.97;54.05;47595.97;4862256;29;20293;-85
2022/10/03 06:00:21;;;;;;;4.93;3.00;;;;;;;-141.97;53.75;47603.66;4877348;29;20183;-85
2022/10/03 06:03:01;;;;;;;8.17;3.40;;;;;;;-141.97;52.69;47540.22;4876520;29;20199;-85
2022/10/03 06:05:31;;;;;;;6.67;3.30;;;;;;;-141.97;52.14;47561.38;4877478;29;20239;-85
2022/10/03 06:08:00;;;;;;;5.17;3.10;;;;;;;-141.97;51.81;47540.22;4880451;29;20211;-84
2022/10/03 06:10:37;;;;;;;5.90;2.90;;;;;;;-141.97;51.42;47563.28;4881586;29;20250;-85
2022/10/03 06:13:18;;;;;;;6.30;2.70;;;;;;;-141.97;51.07;47526.75;4879094;29;20219;-86
2022/10/03 06:16:16;;;;;;;3.20;2.40;;;;;;;-141.97;50.43;47615.19;4866143;29;20206;-87
2022/10/03 06:18:56;;;;;;;6.20;3.10;;;;;;;-141.97;50.30;47569.06;4879476;29;20201;-85
2022/10/03 06:21:40;;;;;;;5.10;2.60;;;;;;;-141.97;49.62;47594.03;4877904;29;20209;-86
2022/10/03 06:24:33;;;;;;;3.10;2.80;;;;;;;-141.97;50.23;47588.28;4916908;29;20197;-84
2022/10/03 06:27:16;;;;;;;5.27;2.60;;;;;;;-141.97;49.69;47561.38;4920460;29;20228;-86
2022/10/03 06:30:04;;;;;;;4.60;2.53;;;;;;;-141.97;48.84;47613.25;4935953;29;20217;-87
2022/10/03 06:33:00;;;;;;;4.60;2.67;;;;;;;-141.97;47.78;47557.53;4936658;29;20185;-86
2022/10/03 06:35:53;;;;;;;3.40;2.63;;;;;;;-141.97;48.05;47538.28;4939570;29;20186;-86
2022/10/03 06:38:56;;;;;;;3.43;2.40;;;;;;;-141.97;47.94;47574.81;4932198;29;20213;-87
2022/10/03 06:41:46;;;;;;;7.60;2.50;;;;;;;-141.97;47.10;47567.13;4917053;29;20186;-86
2022/10/03 06:44:53;;;;;;;4.13;2.33;;;;;;;-141.97;46.20;47553.69;4923279;28;20277;-86
2022/10/03 06:47:25;;;;;;;5.87;2.40;;;;;;;-141.97;45.84;47555.59;4917026;29;20194;-85
2022/10/03 06:50:17;;;;;;;4.93;2.50;;;;;;;-141.97;45.38;47576.75;4931396;29;20216;-86
2022/10/03 06:52:52;;;;;;;5.60;2.40;;;;;;;-141.97;44.16;47551.75;4916325;29;20178;-86
2022/10/03 06:55:47;;;;;;;6.43;2.30;;;;;;;-141.97;43.19;47576.75;4929558;29;20188;-85
2022/10/03 06:58:30;;;;;;;8.30;2.60;;;;;;;-141.97;43.24;47551.75;4915101;29;20197;-86
2022/10/03 07:01:11;;;;;;;5.33;2.47;;;;;;;-141.97;42.03;47567.13;4915410;29;20193;-86
2022/10/03 07:04:18;;;;;;;8.07;2.30;;;;;;;-141.97;41.32;47534.44;4917414;29;20196;-86
2022/10/03 07:07:00;;;;;;;4.33;2.30;;;;;;;-141.97;40.00;47547.91;4878388;29;20210;-88
2022/10/03 07:10:00;;;;;;;5.80;1.90;;;;;;;-141.97;39.21;47551.75;4879590;29;21106;-88
2022/10/03 07:13:05;;;;;;;5.27;1.80;;;;;;;-141.97;38.41;47517.16;4880013;29;20230;-88
2022/10/03 07:15:33;;;;;;;5.80;1.90;;;;;;;-141.97;38.67;47532.53;4880310;29;20572;-87
2022/10/03 07:18:17;;;;;;;4.77;1.73;;;;;;;-141.97;38.28;47530.59;4880288;29;20199;-87
2022/10/03 07:21:00;;;;;;;3.87;1.80;;;;;;;-141.97;37.60;47549.84;4879555;29;20194;-87
2022/10/03 07:23:49;;;;;;;5.17;1.60;;;;;;;-141.97;36.99;47519.06;4878794;29;20214;-87
2022/10/03 07:26:41;;;;;;;6.37;1.63;;;;;;;-141.97;36.96;47496.00;5108791;27;20357;-86
2022/10/03 07:29:07;;;;;;;4.17;1.57;;;;;;;-141.97;37.08;47522.91;5109406;28;20221;-85
2022/10/03 07:31:51;;;;;;;5.40;1.80;;;;;;;-141.97;36.46;47530.59;5109532;28;20175;-85
2022/10/03 07:34:37;;;;;;;2.97;1.63;;;;;;;-141.97;36.31;47515.22;5108405;28;20599;-84
2022/10/03 07:40:37;;;;;;;2.80;1.70;;;;;;;-141.97;36.61;47538.28;5025603;28;20205;-85
2022/10/03 07:43:21;;;;;;;4.17;1.87;;;;;;;-141.97;36.70;47496.00;5009330;28;20189;-85
2022/10/03 07:46:25;;;;;;;4.03;1.77;;;;;;;-141.97;36.83;47492.16;4976979;28;20939;-85
2022/10/03 07:49:11;;;;;;;3.37;1.80;;;;;;;-141.97;36.53;47490.25;4986822;28;20191;-85
2022/10/03 07:51:50;;;;;;;4.20;1.80;;;;;;;-141.97;36.59;47457.56;4986912;28;20194;-84
2022/10/03 07:54:36;;;;;;;4.93;1.87;;;;;;;-141.97;36.51;47476.78;4970970;28;20187;-84
2022/10/03 07:57:23;;;;;;;8.70;2.47;;;;;;;-141.97;36.28;47517.16;4986317;28;20199;-85
2022/10/03 08:00:06;;;;;;;5.40;2.27;;;;;;;-141.97;36.07;47472.94;4986817;28;20203;-84
2022/10/03 08:02:59;;;;;;;4.83;1.93;;;;;;;-141.97;35.74;47488.31;4986936;28;20187;-84
2022/10/03 08:05:36;;;;;;;5.43;1.77;;;;;;;-141.97;35.77;47503.69;4985081;28;20203;-85
2022/10/03 08:08:38;;;;;;;2.10;1.60;;;;;;;-141.97;35.10;47488.31;4985671;28;20267;-86
2022/10/03 08:11:20;;;;;;;2.73;1.70;;;;;;;-141.97;35.47;47507.53;4986850;28;20222;-87
2022/10/03 08:14:17;;;;;;;4.33;1.70;;;;;;;-141.97;35.72;47449.88;4987766;28;20179;-87
2022/10/03 08:17:12;;;;;;;2.87;1.70;;;;;;;-141.97;36.13;47526.75;5045178;28;20212;-87
2022/10/03 08:20:04;;;;;;;5.83;1.90;;;;;;;-141.97;36.39;47459.50;5047941;28;20216;-85
2022/10/03 08:22:35;;;;;;;7.70;1.90;;;;;;;-141.97;36.37;47496.00;5047502;28;20328;-86
2022/10/03 08:25:22;;;;;;;3.63;1.93;;;;;;;-141.97;36.54;47488.31;5047687;28;20716;-85
2022/10/03 08:28:06;;;;;;;5.93;2.07;;;;;;;-141.97;36.86;47488.31;5047191;28;20189;-85
2022/10/03 08:31:02;;;;;;;3.50;1.90;;;;;;;-141.97;37.46;47503.69;5044870;28;20215;-85
2022/10/03 08:33:44;;;;;;;4.17;2.30;;;;;;;-141.97;37.66;47511.38;5049686;28;20184;-85
2022/10/03 08:36:31;;;;;;;2.70;1.83;;;;;;;-141.97;37.82;47488.31;5044393;28;20673;-87
2022/10/03 08:39:36;;;;;;;10.87;2.53;;;;;;;-141.97;37.74;47376.84;5035873;28;20196;-85
2022/10/03 08:42:30;;;;;;;4.23;2.50;;;;;;;-141.97;37.99;47465.25;4979978;28;20273;-85
2022/10/03 08:45:29;;;;;;;5.43;2.63;;;;;;;-141.97;38.10;47494.09;4971257;28;20636;-86
2022/10/03 08:48:17;;;;;;;4.43;2.40;;;;;;;-141.97;38.56;47474.88;5000803;28;20675;-86
2022/10/03 08:51:11;;;;;;;5.47;2.53;;;;;;;-141.97;38.82;47503.69;5000051;28;20282;-85
2022/10/03 08:54:08;;;;;;;6.60;2.67;;;;;;;-141.97;39.05;47499.84;4999892;28;20199;-85
2022/10/03 08:56:36;;;;;;;11.70;2.80;;;;;;;-141.97;39.57;47542.16;4996908;28;20187;-86
2022/10/03 08:59:07;;;;;;;5.43;2.63;;;;;;;-141.97;39.79;47501.78;5001002;28;20203;-85
2022/10/03 09:01:44;;;;;;;4.63;2.70;;;;;;;-141.97;40.26;47488.31;5009573;28;20185;-84
2022/10/03 09:04:28;;;;;;;5.83;3.00;;;;;;;-141.97;39.76;47471.03;5010965;28;20712;-83
2022/10/03 09:07:18;;;;;;;8.20;3.23;;;;;;;-141.97;38.90;47503.69;4996646;28;20206;-85
2022/10/03 09:10:06;;;;;;;6.37;3.43;;;;;;;-141.97;38.69;47496.00;4991232;28;20273;-85
2022/10/03 09:12:56;;;;;;;8.17;4.00;;;;;;;-141.97;38.92;47490.25;4991716;28;20710;-85
2022/10/03 09:15:49;;;;;;;9.57;3.63;;;;;;;-141.97;38.93;47503.69;4991281;28;20191;-85
2022/10/03 09:18:27;;;;;;;7.30;4.10;;;;;;;-141.97;38.97;47494.09;4997414;28;20184;-85
2022/10/03 09:21:36;;;;;;;8.23;3.90;;;;;;;-141.97;39.51;47486.41;5033738;28;20200;-86
2022/10/03 09:24:33;;;;;;;5.67;3.07;;;;;;;-141.97;39.56;47522.91;5011202;28;20198;-85
2022/10/03 09:27:17;;;;;;;3.83;2.70;;;;;;;-141.97;40.14;47526.75;5023978;28;20202;-85
2022/10/03 09:30:03;;;;;;;4.30;2.80;;;;;;;-141.97;40.52;47522.91;5030741;28;20194;-84
2022/10/03 09:32:56;;;;;;;4.33;2.50;;;;;;;-141.97;40.58;47488.31;5030867;28;20273;-86
2022/10/03 09:35:21;;;;;;;4.40;2.60;;;;;;;-141.97;40.92;47503.69;5044781;28;20182;-85
2022/10/03 09:38:08;;;;;;;3.70;2.40;;;;;;;-141.97;41.04;47546.00;5044928;28;20193;-85
2022/10/03 09:40:33;;;;;;;4.07;2.30;;;;;;;-141.97;40.83;47511.38;5020897;28;20209;-85
2022/10/03 09:43:17;;;;;;;3.83;2.50;;;;;;;-141.97;40.95;47484.47;5009982;28;20190;-85
2022/10/03 09:45:57;;;;;;;3.67;2.63;;;;;;;-141.97;41.30;47519.06;5001468;28;20237;-85
2022/10/03 09:48:22;;;;;;;4.17;2.47;;;;;;;-141.97;42.22;47507.53;5029941;28;20185;-86
2022/10/03 09:51:06;;;;;;;4.60;2.33;;;;;;;-141.97;42.97;47536.38;5030333;28;20185;-86
2022/10/03 09:53:40;;;;;;;2.70;2.30;;;;;;;-141.97;43.33;47505.63;5029852;28;20181;-85
2022/10/03 09:56:32;;;;;;;3.27;2.40;;;;;;;-141.97;43.67;47532.53;5029278;28;20222;-85
2022/10/03 09:59:17;;;;;;;2.47;2.10;;;;;;;-141.97;43.96;47507.53;5031638;28;20580;-86
2022/10/03 10:02:11;;;;;;;3.37;2.40;;;;;;;-141.97;44.65;47503.69;5051320;28;20193;-86
2022/10/03 10:05:02;;;;;;;3.20;2.50;;;;;;;-141.97;45.35;47519.06;5052727;28;20836;-87
2022/10/03 10:07:51;;;;;;;4.33;2.20;;;;;;;-141.97;45.50;47413.38;5051194;28;20193;-87
2022/10/03 10:10:55;;;;;;;3.00;2.30;;;;;;;-141.97;45.66;47519.06;4991608;28;20209;-87
2022/10/03 10:13:41;;;;;;;10.00;2.53;;;;;;;-141.97;45.33;47538.28;4991477;28;20584;-87
2022/10/03 10:16:15;;;;;;;3.20;2.30;;;;;;;-141.97;45.88;47544.06;4992193;28;20199;-87
2022/10/03 10:18:59;;;;;;;2.83;2.03;;;;;;;-141.97;46.11;47544.06;4992915;28;20190;-86
2022/10/03 10:21:35;;;;;;;4.43;1.80;;;;;;;-141.97;47.02;47561.38;4992762;28;20261;-85
2022/10/03 10:24:35;;;;;;;3.67;2.00;;;;;;;-141.97;47.39;47446.03;4994369;28;20771;-88
2022/10/03 10:27:54;;;;;;;2.80;1.87;;;;;;;-141.97;47.54;47563.28;4991092;28;20234;-86
2022/10/03 10:30:44;;;;;;;2.97;2.00;;;;;;;-141.97;47.99;47561.38;4975593;28;20219;-89
2022/10/03 10:33:47;;;;;;;2.33;1.60;;;;;;;-141.97;48.30;47513.31;4991311;28;20517;-86
2022/10/03 10:36:50;;;;;;;3.63;2.27;;;;;;;-141.97;48.37;47532.53;4990399;28;20202;-86
2022/10/03 10:39:15;;;;;;;2.53;1.60;;;;;;;-141.97;48.57;47542.16;4991103;28;20187;-86
2022/10/03 10:42:15;;;;;;;4.87;2.10;;;;;;;-141.97;48.71;47542.16;4991968;28;20584;-85
2022/10/03 10:44:49;;;;;;;3.00;2.00;;;;;;;-141.97;49.15;47555.59;4979821;28;20691;-87
2022/10/03 10:47:23;;;;;;;3.00;1.93;;;;;;;-141.97;49.09;47519.06;5010549;28;20224;-86
2022/10/03 10:50:00;;;;;;;2.73;1.90;;;;;;;-141.97;49.64;47555.59;5052993;28;20642;-87
2022/10/03 10:52:50;;;;;;;1.97;1.70;;;;;;;-141.97;49.19;47549.84;5053995;28;20189;-87
2022/10/03 10:55:34;;;;;;;2.70;1.80;;;;;;;-141.97;50.43;47538.28;5053452;28;20177;-87
2022/10/03 10:58:45;;;;;;;3.83;2.17;;;;;;;-141.97;52.60;47682.47;5068525;28;20181;-88
2022/10/03 11:01:36;;;;;;;2.43;1.90;;;;;;;-141.97;52.84;47519.06;5071005;28;20227;-87
2022/10/03 11:04:04;;;;;;;4.63;2.50;;;;;;;-141.97;53.17;47595.97;5057505;28;20740;-86
2022/10/03 11:06:41;;;;;;;5.13;3.23;;;;;;;-141.97;53.35;47553.69;5071044;28;20209;-87
2022/10/03 11:09:27;;;;;;;5.47;2.73;;;;;;;-141.97;54.02;47536.38;5053927;28;20184;-88
2022/10/03 11:12:02;;;;;;;5.00;3.97;;;;;;;-141.97;54.58;47549.84;5053907;28;20196;-87
2022/10/03 11:14:34;;;;;;;4.53;3.03;;;;;;;-141.97;54.44;47549.84;5053361;28;20234;-87
2022/10/03 11:17:18;;;;;;;8.07;3.50;;;;;;;-141.97;54.79;47536.38;5070523;28;20207;-87
2022/10/03 11:20:11;;;;;;;6.70;3.43;;;;;;;-141.97;55.16;47576.75;5052972;28;20207;-87
2022/10/03 11:22:51;;;;;;;10.77;3.43;;;;;;;-141.97;56.94;47569.06;5068842;28;20212;-92
2022/10/03 11:25:31;;;;;;;5.17;3.00;;;;;;;-141.97;58.17;47546.00;5054085;28;20233;-87
2022/10/03 11:28:54;;;;;;;4.43;3.07;;;;;;;-141.97;58.36;47561.38;5067533;28;20188;-87
2022/10/03 11:31:57;;;;;;;5.73;2.60;;;;;;;-141.97;56.70;47521.00;4991252;28;20191;-87
2022/10/03 11:35:01;;;;;;;5.77;3.20;;;;;;;-141.97;56.89;47551.75;4990841;28;20175;-88
2022/10/03 11:37:35;;;;;;;7.27;3.20;;;;;;;-141.97;58.82;47567.13;4991269;28;20262;-87
2022/10/03 11:40:20;;;;;;;8.43;3.47;;;;;;;-141.97;59.68;47469.09;4991276;28;20221;-87
2022/10/03 11:43:02;;;;;;;4.63;3.00;;;;;;;-141.97;58.98;47553.69;4992814;28;21017;-86
2022/10/03 11:45:35;;;;;;;6.87;3.40;;;;;;;-141.97;58.07;47428.75;4980874;28;20235;-86
2022/10/03 11:48:39;;;;;;;5.53;3.67;;;;;;;-141.97;57.16;47542.16;4990862;28;20227;-87
2022/10/03 11:51:24;;;;;;;4.83;3.37;;;;;;;-141.97;55.35;47680.53;4990667;28;20757;-86
2022/10/03 11:54:21;;;;;;;5.27;3.50;;;;;;;-141.97;53.92;47546.00;4990840;28;20229;-86
2022/10/03 11:56:58;;;;;;;4.47;3.30;;;;;;;-141.97;52.86;47442.19;4989827;28;20187;-86
2022/10/03 11:59:51;;;;;;;5.33;3.10;;;;;;;-141.97;53.21;47511.38;4974410;28;20243;-86
2022/10/03 12:02:34;;;;;;;5.47;3.40;;;;;;;-141.97;52.15;47507.53;5048377;28;20213;-86
2022/10/03 12:05:19;;;;;;;4.40;3.43;;;;;;;-141.97;51.47;47363.41;5053031;28;20665;-86
2022/10/03 12:11:15;;;;;;;5.77;3.40;;;;;;;-141.97;52.53;47536.38;5053702;28;20211;-87
2022/10/03 12:13:59;;;;;;;4.53;3.80;;;;;;;-141.97;51.91;47521.00;5058020;28;20173;-87
2022/10/03 12:16:36;;;;;;;4.03;3.30;;;;;;;-141.97;48.30;47542.16;5068155;28;20457;-87
2022/10/03 12:19:22;;;;;;;5.43;3.20;;;;;;;-141.97;46.91;47446.03;5068273;28;20272;-86
2022/10/03 12:21:56;;;;;;;3.90;3.10;;;;;;;-141.97;46.82;47380.69;5065158;28;20157;-86
2022/10/03 12:24:35;;;;;;;4.30;3.60;;;;;;;-141.97;47.54;47457.56;5061481;28;20162;-85
2022/10/03 12:27:28;;;;;;;4.30;3.73;;;;;;;-141.97;46.90;47373.00;5065824;28;20231;-86
2022/10/03 12:30:02;;;;;;;5.10;3.60;;;;;;;-141.97;46.39;47544.06;5066672;28;20162;-86
2022/10/03 12:32:52;;;;;;;4.17;3.50;;;;;;;-141.97;45.40;47534.44;5066148;28;20247;-86
2022/10/03 12:35:46;;;;;;;3.83;3.43;;;;;;;-141.97;43.90;47501.78;5057680;28;20162;-87
2022/10/03 12:38:32;;;;;;;4.00;3.30;;;;;;;-141.97;43.73;47471.03;5061413;28;20165;-87
2022/10/03 12:41:11;;;;;;;4.23;3.20;;;;;;;-141.97;44.18;47465.25;5057609;28;20199;-87
2022/10/03 12:44:05;;;;;;;4.73;3.00;;;;;;;-141.97;44.42;47515.22;5056848;28;20599;-87
2022/10/03 12:46:42;;;;;;;5.40;3.30;;;;;;;-141.97;44.71;47496.00;5058643;28;20204;-87
2022/10/03 12:49:28;;;;;;;6.20;3.40;;;;;;;-141.97;44.96;47532.53;5071716;28;20652;-86